sensor_id;sensor_type;location;lat;lon;timestamp;P1;durP1;ratioP1;P2;durP2;ratioP2
78716;SDS011;68045;50.042;14.432;2023-04-01T00:01:49;2.05;;;1.33;;
78716;SDS011;68045;50.042;14.432;2023-04-01T00:05:51;2.83;;;1.15;;
78716;SDS011;68045;50.042;14.432;2023-04-01T00:09:52;2.90;;;1.17;;
78716;SDS011;68045;50.042;14.432;2023-04-01T00:13:53;3.15;;;1.65;;
78716;SDS011;68045;50.042;14.432;2023-04-01T00:17:54;3.28;;;1.35;;
78716;SDS011;68045;50.042;14.432;2023-04-01T00:21:55;3.45;;;1.40;;
78716;SDS011;68045;50.042;14.432;2023-04-01T00:25:59;5.65;;;1.60;;
78716;SDS011;68045;50.042;14.432;2023-04-01T00:30:01;2.20;;;1.00;;
78716;SDS011;68045;50.042;14.432;2023-04-01T00:34:03;1.40;;;1.02;;
78716;SDS011;68045;50.042;14.432;2023-04-01T00:38:04;3.03;;;1.40;;
78716;SDS011;68045;50.042;14.432;2023-04-01T00:42:08;3.25;;;1.60;;
78716;SDS011;68045;50.042;14.432;2023-04-01T00:46:10;1.52;;;0.90;;
78716;SDS011;68045;50.042;14.432;2023-04-01T00:50:12;3.53;;;1.20;;
78716;SDS011;68045;50.042;14.432;2023-04-01T00:54:13;2.25;;;1.20;;
78716;SDS011;68045;50.042;14.432;2023-04-01T00:58:17;3.28;;;1.38;;
78716;SDS011;68045;50.042;14.432;2023-04-01T01:02:22;5.95;;;1.10;;
78716;SDS011;68045;50.042;14.432;2023-04-01T01:10:48;3.30;;;1.38;;
78716;SDS011;68045;50.042;14.432;2023-04-01T01:23:56;2.17;;;1.05;;
78716;SDS011;68045;50.042;14.432;2023-04-01T01:27:49;3.00;;;1.08;;
78716;SDS011;68045;50.042;14.432;2023-04-01T01:36:18;3.10;;;1.30;;
78716;SDS011;68045;50.042;14.432;2023-04-01T01:40:21;0.80;;;0.70;;
78716;SDS011;68045;50.042;14.432;2023-04-01T01:44:25;3.78;;;1.15;;
78716;SDS011;68045;50.042;14.432;2023-04-01T01:48:30;2.92;;;1.20;;
78716;SDS011;68045;50.042;14.432;2023-04-01T01:52:33;1.40;;;1.00;;
78716;SDS011;68045;50.042;14.432;2023-04-01T01:56:34;2.30;;;1.05;;
78716;SDS011;68045;50.042;14.432;2023-04-01T02:00:37;3.05;;;1.20;;
78716;SDS011;68045;50.042;14.432;2023-04-01T02:04:39;3.30;;;1.23;;
78716;SDS011;68045;50.042;14.432;2023-04-01T02:08:47;3.03;;;1.10;;
78716;SDS011;68045;50.042;14.432;2023-04-01T02:12:53;1.40;;;1.05;;
78716;SDS011;68045;50.042;14.432;2023-04-01T02:17:02;2.78;;;1.17;;
78716;SDS011;68045;50.042;14.432;2023-04-01T02:21:08;3.88;;;1.23;;
78716;SDS011;68045;50.042;14.432;2023-04-01T02:25:12;2.15;;;1.20;;
78716;SDS011;68045;50.042;14.432;2023-04-01T02:29:16;2.50;;;1.30;;
78716;SDS011;68045;50.042;14.432;2023-04-01T02:33:21;4.47;;;1.38;;
78716;SDS011;68045;50.042;14.432;2023-04-01T02:37:24;2.00;;;1.20;;
78716;SDS011;68045;50.042;14.432;2023-04-01T02:41:25;3.70;;;1.35;;
78716;SDS011;68045;50.042;14.432;2023-04-01T02:45:26;6.57;;;1.27;;
78716;SDS011;68045;50.042;14.432;2023-04-01T02:49:27;2.55;;;1.23;;
78716;SDS011;68045;50.042;14.432;2023-04-01T02:53:29;1.65;;;1.13;;
78716;SDS011;68045;50.042;14.432;2023-04-01T02:57:30;6.40;;;1.52;;
78716;SDS011;68045;50.042;14.432;2023-04-01T03:06:45;1.75;;;1.05;;
78716;SDS011;68045;50.042;14.432;2023-04-01T03:10:46;6.40;;;1.38;;
78716;SDS011;68045;50.042;14.432;2023-04-01T03:14:47;5.80;;;1.30;;
78716;SDS011;68045;50.042;14.432;2023-04-01T03:18:48;2.60;;;1.23;;
78716;SDS011;68045;50.042;14.432;2023-04-01T03:22:52;2.55;;;1.38;;
78716;SDS011;68045;50.042;14.432;2023-04-01T03:26:53;2.67;;;1.20;;
78716;SDS011;68045;50.042;14.432;2023-04-01T03:30:54;2.78;;;1.25;;
78716;SDS011;68045;50.042;14.432;2023-04-01T03:34:55;2.60;;;1.20;;
78716;SDS011;68045;50.042;14.432;2023-04-01T03:38:56;3.25;;;1.30;;
78716;SDS011;68045;50.042;14.432;2023-04-01T03:43:07;2.17;;;1.20;;
78716;SDS011;68045;50.042;14.432;2023-04-01T03:47:11;2.08;;;0.98;;
78716;SDS011;68045;50.042;14.432;2023-04-01T03:51:12;3.05;;;1.42;;
78716;SDS011;68045;50.042;14.432;2023-04-01T03:55:15;3.03;;;1.27;;
78716;SDS011;68045;50.042;14.432;2023-04-01T03:59:16;5.05;;;1.23;;
78716;SDS011;68045;50.042;14.432;2023-04-01T04:03:17;3.22;;;1.27;;
78716;SDS011;68045;50.042;14.432;2023-04-01T04:07:18;1.92;;;1.30;;
78716;SDS011;68045;50.042;14.432;2023-04-01T04:11:36;3.70;;;1.20;;
78716;SDS011;68045;50.042;14.432;2023-04-01T04:15:37;10.43;;;1.38;;
78716;SDS011;68045;50.042;14.432;2023-04-01T04:19:41;7.03;;;1.80;;
78716;SDS011;68045;50.042;14.432;2023-04-01T04:23:44;2.70;;;1.13;;
78716;SDS011;68045;50.042;14.432;2023-04-01T04:27:49;7.50;;;1.50;;
78716;SDS011;68045;50.042;14.432;2023-04-01T04:31:50;5.00;;;1.55;;
78716;SDS011;68045;50.042;14.432;2023-04-01T04:35:54;1.98;;;1.45;;
78716;SDS011;68045;50.042;14.432;2023-04-01T04:39:57;2.63;;;1.63;;
78716;SDS011;68045;50.042;14.432;2023-04-01T04:43:58;2.60;;;1.50;;
78716;SDS011;68045;50.042;14.432;2023-04-01T04:48:01;2.83;;;1.40;;
78716;SDS011;68045;50.042;14.432;2023-04-01T04:52:05;2.25;;;1.30;;
78716;SDS011;68045;50.042;14.432;2023-04-01T04:56:07;4.47;;;1.38;;
78716;SDS011;68045;50.042;14.432;2023-04-01T05:04:57;3.55;;;1.88;;
78716;SDS011;68045;50.042;14.432;2023-04-01T05:08:59;2.95;;;1.23;;
78716;SDS011;68045;50.042;14.432;2023-04-01T05:13:00;1.80;;;1.10;;
78716;SDS011;68045;50.042;14.432;2023-04-01T05:17:02;2.97;;;1.35;;
78716;SDS011;68045;50.042;14.432;2023-04-01T05:21:04;4.30;;;1.52;;
78716;SDS011;68045;50.042;14.432;2023-04-01T05:25:11;4.88;;;1.80;;
78716;SDS011;68045;50.042;14.432;2023-04-01T05:29:12;4.50;;;1.75;;
78716;SDS011;68045;50.042;14.432;2023-04-01T05:33:15;5.68;;;1.60;;
78716;SDS011;68045;50.042;14.432;2023-04-01T05:37:16;3.03;;;1.60;;
78716;SDS011;68045;50.042;14.432;2023-04-01T05:41:18;3.03;;;1.40;;
78716;SDS011;68045;50.042;14.432;2023-04-01T05:45:20;4.47;;;2.05;;
78716;SDS011;68045;50.042;14.432;2023-04-01T05:49:47;2.72;;;1.30;;
78716;SDS011;68045;50.042;14.432;2023-04-01T05:53:49;4.10;;;1.60;;
78716;SDS011;68045;50.042;14.432;2023-04-01T05:57:50;1.70;;;0.95;;
78716;SDS011;68045;50.042;14.432;2023-04-01T06:01:51;5.93;;;1.50;;
78716;SDS011;68045;50.042;14.432;2023-04-01T06:05:54;2.25;;;1.33;;
78716;SDS011;68045;50.042;14.432;2023-04-01T06:09:55;3.33;;;1.77;;
78716;SDS011;68045;50.042;14.432;2023-04-01T06:14:30;2.60;;;1.20;;
78716;SDS011;68045;50.042;14.432;2023-04-01T06:50:00;4.05;;;1.33;;
78716;SDS011;68045;50.042;14.432;2023-04-01T06:54:43;3.42;;;1.38;;
78716;SDS011;68045;50.042;14.432;2023-04-01T06:59:18;4.43;;;1.50;;
78716;SDS011;68045;50.042;14.432;2023-04-01T07:03:30;3.88;;;1.75;;
78716;SDS011;68045;50.042;14.432;2023-04-01T07:07:41;3.75;;;1.30;;
78716;SDS011;68045;50.042;14.432;2023-04-01T07:11:48;3.10;;;1.20;;
78716;SDS011;68045;50.042;14.432;2023-04-01T07:16:16;3.47;;;1.40;;
78716;SDS011;68045;50.042;14.432;2023-04-01T07:20:33;1.75;;;1.10;;
78716;SDS011;68045;50.042;14.432;2023-04-01T07:24:39;3.30;;;1.30;;
78716;SDS011;68045;50.042;14.432;2023-04-01T07:28:44;3.40;;;1.20;;
78716;SDS011;68045;50.042;14.432;2023-04-01T07:46:07;5.40;;;1.38;;
78716;SDS011;68045;50.042;14.432;2023-04-01T07:50:32;2.40;;;1.10;;
78716;SDS011;68045;50.042;14.432;2023-04-01T07:54:45;3.08;;;1.33;;
78716;SDS011;68045;50.042;14.432;2023-04-01T08:04:27;2.38;;;1.20;;
78716;SDS011;68045;50.042;14.432;2023-04-01T08:09:15;6.60;;;1.65;;
78716;SDS011;68045;50.042;14.432;2023-04-01T08:14:20;3.47;;;1.30;;
78716;SDS011;68045;50.042;14.432;2023-04-01T08:23:03;2.90;;;1.20;;
78716;SDS011;68045;50.042;14.432;2023-04-01T08:31:16;2.47;;;1.13;;
78716;SDS011;68045;50.042;14.432;2023-04-01T08:35:28;4.35;;;1.20;;
78716;SDS011;68045;50.042;14.432;2023-04-01T08:39:37;1.73;;;1.08;;
78716;SDS011;68045;50.042;14.432;2023-04-01T08:44:09;2.85;;;1.40;;
78716;SDS011;68045;50.042;14.432;2023-04-01T08:52:56;2.40;;;1.27;;
78716;SDS011;68045;50.042;14.432;2023-04-01T09:06:37;3.28;;;1.40;;
78716;SDS011;68045;50.042;14.432;2023-04-01T09:11:03;1.83;;;1.17;;
78716;SDS011;68045;50.042;14.432;2023-04-01T09:50:51;1.65;;;1.10;;
78716;SDS011;68045;50.042;14.432;2023-04-01T09:59:50;3.67;;;1.20;;
78716;SDS011;68045;50.042;14.432;2023-04-01T10:04:23;2.00;;;1.30;;
78716;SDS011;68045;50.042;14.432;2023-04-01T10:31:35;2.03;;;1.00;;
78716;SDS011;68045;50.042;14.432;2023-04-01T10:40:30;2.95;;;1.20;;
78716;SDS011;68045;50.042;14.432;2023-04-01T10:58:55;2.47;;;0.90;;
78716;SDS011;68045;50.042;14.432;2023-04-01T11:21:59;1.38;;;0.80;;
78716;SDS011;68045;50.042;14.432;2023-04-01T11:31:09;3.85;;;0.90;;
78716;SDS011;68045;50.042;14.432;2023-04-01T11:44:17;3.10;;;1.20;;
78716;SDS011;68045;50.042;14.432;2023-04-01T11:53:17;2.08;;;1.40;;
78716;SDS011;68045;50.042;14.432;2023-04-01T12:15:58;2.20;;;1.30;;
78716;SDS011;68045;50.042;14.432;2023-04-01T12:28:46;1.85;;;1.13;;
78716;SDS011;68045;50.042;14.432;2023-04-01T12:59:23;1.58;;;1.20;;
78716;SDS011;68045;50.042;14.432;2023-04-01T13:16:52;2.55;;;1.40;;
78716;SDS011;68045;50.042;14.432;2023-04-01T13:21:05;2.28;;;1.15;;
78716;SDS011;68045;50.042;14.432;2023-04-01T13:25:24;2.10;;;1.20;;
78716;SDS011;68045;50.042;14.432;2023-04-01T13:29:46;2.13;;;1.30;;
78716;SDS011;68045;50.042;14.432;2023-04-01T13:42:42;1.60;;;0.88;;
78716;SDS011;68045;50.042;14.432;2023-04-01T13:55:19;1.80;;;1.10;;
78716;SDS011;68045;50.042;14.432;2023-04-01T14:34:55;2.25;;;1.15;;
78716;SDS011;68045;50.042;14.432;2023-04-01T14:52:32;1.65;;;0.90;;
78716;SDS011;68045;50.042;14.432;2023-04-01T14:56:50;1.27;;;0.90;;
78716;SDS011;68045;50.042;14.432;2023-04-01T15:05:27;1.27;;;1.10;;
78716;SDS011;68045;50.042;14.432;2023-04-01T15:09:36;2.85;;;0.88;;
78716;SDS011;68045;50.042;14.432;2023-04-01T15:17:54;1.48;;;1.00;;
78716;SDS011;68045;50.042;14.432;2023-04-01T15:31:19;3.83;;;1.38;;
78716;SDS011;68045;50.042;14.432;2023-04-01T15:36:00;2.28;;;1.27;;
78716;SDS011;68045;50.042;14.432;2023-04-01T15:58:52;2.38;;;1.40;;
78716;SDS011;68045;50.042;14.432;2023-04-01T16:06:28;2.97;;;1.30;;
78716;SDS011;68045;50.042;14.432;2023-04-01T16:15:04;2.90;;;1.10;;
78716;SDS011;68045;50.042;14.432;2023-04-01T16:19:45;1.20;;;1.00;;
78716;SDS011;68045;50.042;14.432;2023-04-01T16:24:04;1.88;;;1.10;;
78716;SDS011;68045;50.042;14.432;2023-04-01T16:37:03;1.77;;;1.10;;
78716;SDS011;68045;50.042;14.432;2023-04-01T16:49:37;0.95;;;0.85;;
78716;SDS011;68045;50.042;14.432;2023-04-01T16:57:56;1.90;;;1.08;;
78716;SDS011;68045;50.042;14.432;2023-04-01T17:10:27;2.20;;;1.25;;
78716;SDS011;68045;50.042;14.432;2023-04-01T17:23:18;3.58;;;1.88;;
78716;SDS011;68045;50.042;14.432;2023-04-01T17:27:28;2.40;;;1.55;;
78716;SDS011;68045;50.042;14.432;2023-04-01T17:44:44;2.25;;;1.38;;
78716;SDS011;68045;50.042;14.432;2023-04-01T18:15:28;4.65;;;2.00;;
78716;SDS011;68045;50.042;14.432;2023-04-01T18:19:43;4.13;;;1.90;;
78716;SDS011;68045;50.042;14.432;2023-04-01T18:32:37;6.72;;;2.25;;
78716;SDS011;68045;50.042;14.432;2023-04-01T18:36:49;4.20;;;2.03;;
78716;SDS011;68045;50.042;14.432;2023-04-01T18:49:44;3.10;;;1.70;;
78716;SDS011;68045;50.042;14.432;2023-04-01T18:53:57;3.28;;;1.80;;
78716;SDS011;68045;50.042;14.432;2023-04-01T19:02:35;5.68;;;1.50;;
78716;SDS011;68045;50.042;14.432;2023-04-01T19:06:45;2.75;;;1.25;;
78716;SDS011;68045;50.042;14.432;2023-04-01T19:11:06;4.30;;;2.00;;
78716;SDS011;68045;50.042;14.432;2023-04-01T19:24:18;3.67;;;1.95;;
78716;SDS011;68045;50.042;14.432;2023-04-01T19:28:47;3.85;;;2.15;;
78716;SDS011;68045;50.042;14.432;2023-04-01T19:37:06;3.80;;;2.03;;
78716;SDS011;68045;50.042;14.432;2023-04-01T19:41:32;2.55;;;1.50;;
78716;SDS011;68045;50.042;14.432;2023-04-01T20:07:47;3.47;;;2.05;;
78716;SDS011;68045;50.042;14.432;2023-04-01T20:16:09;3.13;;;1.85;;
78716;SDS011;68045;50.042;14.432;2023-04-01T20:32:24;3.78;;;2.22;;
78716;SDS011;68045;50.042;14.432;2023-04-01T20:36:57;4.50;;;2.30;;
78716;SDS011;68045;50.042;14.432;2023-04-01T20:41:24;5.45;;;2.70;;
78716;SDS011;68045;50.042;14.432;2023-04-01T21:19:30;4.47;;;2.20;;
78716;SDS011;68045;50.042;14.432;2023-04-01T21:41:47;5.47;;;2.10;;
78716;SDS011;68045;50.042;14.432;2023-04-01T21:46:31;5.63;;;2.60;;
78716;SDS011;68045;50.042;14.432;2023-04-01T22:04:47;4.85;;;2.72;;
78716;SDS011;68045;50.042;14.432;2023-04-01T22:08:46;4.68;;;2.30;;
78716;SDS011;68045;50.042;14.432;2023-04-01T22:13:07;4.10;;;2.70;;
78716;SDS011;68045;50.042;14.432;2023-04-01T22:21:38;5.15;;;2.60;;
78716;SDS011;68045;50.042;14.432;2023-04-01T22:26:05;4.28;;;2.70;;
78716;SDS011;68045;50.042;14.432;2023-04-01T22:30:29;4.82;;;2.65;;
78716;SDS011;68045;50.042;14.432;2023-04-01T22:34:37;7.65;;;3.00;;
78716;SDS011;68045;50.042;14.432;2023-04-01T22:43:11;3.75;;;2.42;;
78716;SDS011;68045;50.042;14.432;2023-04-01T22:47:34;5.35;;;2.70;;
78716;SDS011;68045;50.042;14.432;2023-04-01T22:52:03;4.95;;;2.78;;
78716;SDS011;68045;50.042;14.432;2023-04-01T22:56:18;4.40;;;2.50;;
78716;SDS011;68045;50.042;14.432;2023-04-01T23:00:25;4.93;;;2.70;;
78716;SDS011;68045;50.042;14.432;2023-04-01T23:04:32;4.40;;;2.70;;
78716;SDS011;68045;50.042;14.432;2023-04-01T23:08:55;4.35;;;2.30;;
78716;SDS011;68045;50.042;14.432;2023-04-01T23:13:05;5.55;;;2.58;;
78716;SDS011;68045;50.042;14.432;2023-04-01T23:17:22;5.18;;;2.80;;
78716;SDS011;68045;50.042;14.432;2023-04-01T23:21:34;4.57;;;2.30;;
78716;SDS011;68045;50.042;14.432;2023-04-01T23:30:02;5.93;;;2.72;;
78716;SDS011;68045;50.042;14.432;2023-04-01T23:34:25;4.63;;;3.10;;
78716;SDS011;68045;50.042;14.432;2023-04-01T23:38:36;6.13;;;2.78;;
78716;SDS011;68045;50.042;14.432;2023-04-01T23:42:40;7.93;;;2.67;;
78716;SDS011;68045;50.042;14.432;2023-04-01T23:46:42;3.80;;;2.67;;
78716;SDS011;68045;50.042;14.432;2023-04-01T23:50:46;4.65;;;2.38;;
78716;SDS011;68045;50.042;14.432;2023-04-01T23:59:22;5.25;;;2.65;;
